Time;durP1;ratioP1;P1;durP2;ratioP2;P2;SDS_P1;SDS_P2;PMS_P1;PMS_P2;Temp;Humidity;BMP_temperature;BMP_pressure;BME280_temperature;BME280_humidity;BME280_pressure;Samples;Min_cycle;Max_cycle;Signal;HPM_P1;HPM_P2
2021/11/23 00:00:13;;;;;;;6.00;3.70;;;;;;;2.63;69.17;100420.32;1740939;80;20952;-69
2021/11/23 00:02:42;;;;;;;7.42;4.00;;;;;;;2.62;69.20;100426.91;1740084;80;21820;-68
2021/11/23 00:05:10;;;;;;;6.62;3.70;;;;;;;2.62;69.15;100426.91;1770011;79;21391;-68
2021/11/23 00:07:37;;;;;;;6.42;3.70;;;;;;;2.61;69.16;100432.59;1694368;83;21040;-69
2021/11/23 00:10:04;;;;;;;5.40;3.37;;;;;;;2.61;69.16;100426.07;1711473;83;21092;-70
2021/11/23 00:12:32;;;;;;;6.15;3.80;;;;;;;2.61;69.20;100429.98;1707276;83;20964;-69
2021/11/23 00:15:00;;;;;;;6.50;3.83;;;;;;;2.62;69.12;100427.76;1714463;83;21806;-69
2021/11/23 00:17:26;;;;;;;4.40;3.45;;;;;;;2.63;69.14;100430.75;1681641;83;21033;-69
2021/11/23 00:19:53;;;;;;;6.60;3.60;;;;;;;2.64;69.17;100435.05;1719728;81;21064;-68
2021/11/23 00:22:20;;;;;;;6.17;3.83;;;;;;;2.67;69.16;100433.59;1704847;84;21021;-69
2021/11/23 00:24:47;;;;;;;7.12;3.55;;;;;;;2.70;69.13;100435.20;1683488;84;21572;-68
2021/11/23 00:27:14;;;;;;;7.83;3.40;;;;;;;2.71;69.13;100437.77;1692080;82;21835;-68
2021/11/23 00:29:40;;;;;;;5.08;3.30;;;;;;;2.73;69.13;100445.52;1710177;82;20964;-68
2021/11/23 00:32:07;;;;;;;6.85;3.35;;;;;;;2.74;69.11;100445.90;1678409;82;21006;-69
2021/11/23 00:34:34;;;;;;;6.85;3.50;;;;;;;2.76;69.12;100435.78;1757685;80;21016;-69
2021/11/23 00:37:02;;;;;;;4.70;2.98;;;;;;;2.78;69.11;100433.94;1695887;83;20970;-68
2021/11/23 00:39:28;;;;;;;4.92;2.95;;;;;;;2.80;69.11;100432.59;1701597;83;21766;-69
2021/11/23 00:41:55;;;;;;;4.00;2.85;;;;;;;2.78;69.11;100440.45;1664736;85;21048;-69
2021/11/23 00:44:22;;;;;;;4.53;2.95;;;;;;;2.74;69.15;100446.75;1663100;85;21384;-68
2021/11/23 00:46:49;;;;;;;4.97;2.90;;;;;;;2.71;69.13;100449.50;1701007;84;21021;-68
2021/11/23 00:49:17;;;;;;;4.90;3.12;;;;;;;2.70;69.15;100446.52;1717423;83;21075;-68
2021/11/23 00:51:44;;;;;;;5.25;3.30;;;;;;;2.67;69.12;100446.63;1673335;83;21855;-68
2021/11/23 00:54:11;;;;;;;5.12;3.12;;;;;;;2.68;69.10;100447.47;1704209;83;20949;-68
2021/11/23 00:56:38;;;;;;;4.45;3.10;;;;;;;2.68;69.13;100447.47;1671212;83;21646;-69
2021/11/23 00:59:05;;;;;;;4.95;2.62;;;;;;;2.68;69.08;100445.71;1676147;84;21028;-68
2021/11/23 01:01:32;;;;;;;4.45;3.00;;;;;;;2.68;69.01;100449.63;1718646;81;20945;-68
2021/11/23 01:03:59;;;;;;;3.92;2.77;;;;;;;2.66;68.93;100452.77;1675897;83;22534;-69
2021/11/23 01:06:26;;;;;;;5.03;3.20;;;;;;;2.64;68.88;100455.06;1705503;83;21020;-67
2021/11/23 01:08:52;;;;;;;4.65;3.10;;;;;;;2.62;68.87;100462.11;1683983;82;21080;-68
2021/11/23 01:11:19;;;;;;;4.28;2.80;;;;;;;2.61;68.87;100467.80;1672199;82;21036;-69
2021/11/23 01:13:47;;;;;;;6.47;2.85;;;;;;;2.58;68.68;100467.45;1679149;84;21409;-68
2021/11/23 01:16:15;;;;;;;5.20;3.27;;;;;;;2.55;68.61;100465.45;1696885;83;21839;-69
2021/11/23 01:18:43;;;;;;;3.52;2.47;;;;;;;2.55;68.59;100464.14;1699905;83;20972;-67
2021/11/23 01:21:12;;;;;;;4.80;2.83;;;;;;;2.53;68.46;100459.00;1721211;82;20980;-68
2021/11/23 01:23:39;;;;;;;4.10;2.72;;;;;;;2.54;68.31;100466.36;1697434;82;21067;-68
2021/11/23 01:26:07;;;;;;;5.80;2.83;;;;;;;2.51;67.94;100475.61;1688524;82;21443;-67
2021/11/23 01:28:34;;;;;;;4.83;2.80;;;;;;;2.46;67.89;100465.86;1665812;84;21844;-68
2021/11/23 01:31:02;;;;;;;5.40;3.25;;;;;;;2.45;67.88;100461.09;1687681;83;20968;-68
2021/11/23 01:33:29;;;;;;;6.05;3.02;;;;;;;2.44;67.63;100454.66;1702104;82;20998;-68
2021/11/23 01:35:56;;;;;;;4.83;2.72;;;;;;;2.41;67.57;100454.31;1679970;83;21028;-68
2021/11/23 01:38:22;;;;;;;5.58;3.33;;;;;;;2.39;67.55;100458.75;1705579;82;21030;-68
2021/11/23 01:40:49;;;;;;;6.17;2.75;;;;;;;2.36;67.46;100460.20;1690856;83;21845;-68
2021/11/23 01:43:16;;;;;;;4.53;2.70;;;;;;;2.35;67.33;100466.33;1685464;83;21009;-69
2021/11/23 01:45:43;;;;;;;6.10;2.90;;;;;;;2.35;67.37;100466.80;1668535;84;20953;-68
2021/11/23 01:48:10;;;;;;;4.30;2.80;;;;;;;2.34;67.40;100468.55;1689529;83;21067;-69
2021/11/23 01:50:37;;;;;;;4.05;2.58;;;;;;;2.35;67.42;100465.48;1695699;83;21028;-69
2021/11/23 01:53:08;;;;;;;4.03;2.80;;;;;;;2.36;67.40;100470.63;1691016;83;22219;-70
2021/11/23 01:55:35;;;;;;;3.50;2.52;;;;;;;2.32;67.32;100476.91;1681137;83;21241;-69
2021/11/23 01:58:04;;;;;;;4.28;2.50;;;;;;;2.29;67.27;100476.55;1700644;83;21059;-68
2021/11/23 02:00:32;;;;;;;6.97;2.98;;;;;;;2.24;67.16;100483.75;1684966;83;21272;-68
2021/11/23 02:03:01;;;;;;;4.33;2.52;;;;;;;2.21;67.25;100474.73;1728135;81;20997;-68
2021/11/23 02:05:28;;;;;;;3.27;2.72;;;;;;;2.20;67.38;100476.11;1728941;81;22208;-68
2021/11/23 02:07:55;;;;;;;4.22;2.65;;;;;;;2.19;67.49;100484.39;1728761;81;21002;-68
2021/11/23 02:10:22;;;;;;;4.08;2.35;;;;;;;2.15;67.58;100481.99;1737726;81;20961;-68
2021/11/23 02:12:49;;;;;;;3.33;2.50;;;;;;;2.15;67.78;100482.84;1726330;83;21056;-67
2021/11/23 02:15:16;;;;;;;3.60;2.55;;;;;;;2.11;67.84;100481.72;1726330;82;21017;-68
2021/11/23 02:17:44;;;;;;;4.10;2.60;;;;;;;2.11;68.00;100488.23;1733865;81;21843;-68
2021/11/23 02:20:13;;;;;;;3.52;2.50;;;;;;;2.11;68.07;100490.83;1672965;85;21024;-68
2021/11/23 02:22:40;;;;;;;3.42;2.55;;;;;;;2.12;68.13;100502.95;1665846;85;21408;-68
2021/11/23 02:25:08;;;;;;;4.62;2.45;;;;;;;2.09;68.18;100500.02;1689312;84;21096;-68
2021/11/23 02:27:35;;;;;;;4.17;2.90;;;;;;;2.09;68.30;100503.93;1740157;81;21040;-68
2021/11/23 02:30:04;;;;;;;3.90;2.65;;;;;;;2.09;68.33;100509.14;1753165;81;21805;-68
2021/11/23 02:32:51;;;;;;;4.00;2.85;;;;;;;2.09;68.23;100504.39;1668692;84;21590;-69
2021/11/23 02:35:13;;;;;;;5.17;2.98;;;;;;;2.00;68.19;100502.55;1674627;84;20974;-68
2021/11/23 02:37:47;;;;;;;4.60;2.85;;;;;;;1.96;68.32;100504.91;1689187;83;20981;-67
2021/11/23 02:40:17;;;;;;;3.98;2.95;;;;;;;1.97;68.33;100501.39;1727066;81;21519;-67
2021/11/23 02:42:46;;;;;;;4.22;2.95;;;;;;;1.97;68.45;100498.79;1724388;81;21855;-67
2021/11/23 02:45:14;;;;;;;7.90;3.17;;;;;;;1.99;68.52;100501.33;1732149;81;21017;-66
2021/11/23 02:47:40;;;;;;;4.12;3.20;;;;;;;1.99;68.56;100497.41;1731124;81;21423;-67
2021/11/23 02:50:10;;;;;;;4.03;2.90;;;;;;;1.99;68.60;100499.56;1681300;85;21009;-67
2021/11/23 02:52:36;;;;;;;5.17;3.00;;;;;;;2.00;68.63;100509.53;1672123;84;21021;-67
2021/11/23 02:55:05;;;;;;;5.05;3.27;;;;;;;2.01;68.64;100507.31;1670623;84;22865;-67
2021/11/23 02:57:33;;;;;;;5.70;3.02;;;;;;;2.02;68.64;100505.09;1680942;83;20961;-68
2021/11/23 03:00:03;;;;;;;4.75;3.42;;;;;;;2.02;68.56;100493.38;1701582;82;21024;-68
2021/11/23 03:02:30;;;;;;;3.85;3.10;;;;;;;2.02;68.56;100490.77;1675923;82;21146;-67
2021/11/23 03:04:58;;;;;;;3.50;2.85;;;;;;;1.99;68.50;100500.02;1688264;83;21061;-68
2021/11/23 03:07:25;;;;;;;4.37;3.08;;;;;;;1.97;68.54;100496.19;1728353;80;21850;-67
2021/11/23 03:09:52;;;;;;;5.53;3.17;;;;;;;1.96;68.58;100486.68;1753211;80;21464;-68
2021/11/23 03:12:22;;;;;;;3.83;2.75;;;;;;;1.95;68.56;100488.05;1779821;80;20941;-67
2021/11/23 03:14:48;;;;;;;3.67;3.10;;;;;;;1.95;68.60;100491.95;1775136;80;20980;-67
2021/11/23 03:17:17;;;;;;;3.50;2.80;;;;;;;1.93;68.55;100494.63;1757400;80;21082;-67
2021/11/23 03:19:45;;;;;;;5.65;2.95;;;;;;;1.91;68.53;100507.30;1761108;80;21846;-67
2021/11/23 03:22:12;;;;;;;5.72;3.33;;;;;;;1.90;68.62;100505.61;1688827;83;21379;-68
2021/11/23 03:24:39;;;;;;;4.33;3.17;;;;;;;1.90;68.62;100493.44;1708227;83;21395;-68
2021/11/23 03:27:08;;;;;;;4.10;2.65;;;;;;;1.89;68.60;100497.41;1683991;83;21021;-68
2021/11/23 03:29:35;;;;;;;4.03;3.05;;;;;;;1.88;68.57;100505.69;1762778;80;21114;-68
2021/11/23 03:32:03;;;;;;;4.53;2.80;;;;;;;1.83;68.55;100505.47;1779369;80;21844;-68
2021/11/23 03:34:39;;;;;;;4.42;2.83;;;;;;;1.78;68.53;100513.94;1749176;80;21398;-69
2021/11/23 03:37:10;;;;;;;4.53;2.72;;;;;;;1.74;68.59;100514.53;1741048;80;21052;-69
2021/11/23 03:39:37;;;;;;;4.22;2.80;;;;;;;1.70;68.60;100516.85;1759128;80;21028;-68
2021/11/23 03:42:05;;;;;;;3.83;2.50;;;;;;;1.70;68.69;100516.39;1696476;83;21048;-67
2021/11/23 03:44:34;;;;;;;4.33;2.62;;;;;;;1.67;68.49;100516.53;1711486;83;21864;-69
2021/11/23 03:47:02;;;;;;;3.92;2.33;;;;;;;1.61;68.20;100519.37;1748799;80;21000;-68
2021/11/23 03:49:29;;;;;;;3.20;2.17;;;;;;;1.54;68.13;100518.36;1761529;80;21021;-69
2021/11/23 03:51:55;;;;;;;3.80;2.22;;;;;;;1.48;68.12;100525.98;1746002;80;21538;-68
2021/11/23 03:54:23;;;;;;;3.52;2.35;;;;;;;1.40;68.09;100527.58;1719382;82;20967;-68
2021/11/23 03:56:50;;;;;;;4.15;2.30;;;;;;;1.38;68.15;100525.50;1720513;80;21769;-68
2021/11/23 03:59:16;;;;;;;3.45;2.45;;;;;;;1.37;68.18;100530.77;1695274;83;21044;-68
2021/11/23 04:01:43;;;;;;;2.92;2.22;;;;;;;1.34;68.20;100528.27;1673422;84;21496;-69
2021/11/23 04:04:10;;;;;;;3.98;2.00;;;;;;;1.32;68.18;100528.78;1676824;84;21074;-69
2021/11/23 04:06:38;;;;;;;4.50;2.40;;;;;;;1.31;68.21;100533.14;1681083;84;21035;-69
2021/11/23 04:09:05;;;;;;;5.08;2.17;;;;;;;1.32;68.24;100541.79;1707322;84;21816;-68
2021/11/23 04:11:31;;;;;;;4.35;2.40;;;;;;;1.33;68.26;100535.67;1730769;82;20956;-69
2021/11/23 04:13:59;;;;;;;4.17;2.33;;;;;;;1.35;68.31;100537.34;1722977;82;20968;-68
2021/11/23 04:16:26;;;;;;;5.10;2.40;;;;;;;1.37;68.27;100543.78;1685283;82;21080;-69
2021/11/23 04:18:52;;;;;;;4.47;3.67;;;;;;;1.36;68.23;100546.84;1678280;84;20963;-68
2021/11/23 04:21:19;;;;;;;5.12;2.40;;;;;;;1.33;68.13;100552.59;1648261;85;22266;-69
2021/11/23 04:23:46;;;;;;;3.50;2.40;;;;;;;1.31;68.13;100548.75;1657096;84;21012;-69
2021/11/23 04:26:14;;;;;;;3.47;2.27;;;;;;;1.28;68.17;100548.03;1672674;84;21120;-69
2021/11/23 04:28:42;;;;;;;2.85;2.10;;;;;;;1.26;68.20;100551.16;1693330;84;20962;-69
2021/11/23 04:31:08;;;;;;;2.83;2.20;;;;;;;1.26;68.18;100553.30;1727474;83;21013;-69
2021/11/23 04:33:35;;;;;;;2.87;2.20;;;;;;;1.28;68.17;100542.83;1717647;82;22666;-68
2021/11/23 04:36:05;;;;;;;2.77;2.08;;;;;;;1.30;68.13;100547.06;1721754;83;21424;-69
2021/11/23 04:38:31;;;;;;;2.77;2.10;;;;;;;1.31;68.05;100553.11;1727567;82;20970;-68
2021/11/23 04:40:58;;;;;;;3.50;2.30;;;;;;;1.34;68.12;100551.23;1713088;83;22491;-69
2021/11/23 04:43:25;;;;;;;3.17;2.10;;;;;;;1.36;68.09;100555.09;1711336;82;21052;-68
2021/11/23 04:45:52;;;;;;;3.67;2.45;;;;;;;1.39;68.17;100562.33;1677380;84;21858;-69
2021/11/23 04:48:19;;;;;;;3.95;2.20;;;;;;;1.37;68.04;100553.73;1695192;84;21027;-69
2021/11/23 04:50:46;;;;;;;3.15;2.17;;;;;;;1.38;68.13;100557.18;1693333;84;21001;-69
2021/11/23 04:53:13;;;;;;;4.92;2.70;;;;;;;1.39;68.15;100557.57;1651167;84;21709;-68
2021/11/23 04:55:41;;;;;;;4.65;2.90;;;;;;;1.41;68.12;100560.95;1672717;84;21531;-68
2021/11/23 04:58:08;;;;;;;4.95;2.50;;;;;;;1.43;68.13;100558.68;1667675;83;21869;-69
2021/11/23 05:00:35;;;;;;;5.55;2.98;;;;;;;1.45;68.11;100554.74;1669625;85;21488;-71
2021/11/23 05:03:02;;;;;;;4.35;2.62;;;;;;;1.44;68.03;100564.73;1685390;83;20957;-71
2021/11/23 05:05:29;;;;;;;4.25;3.00;;;;;;;1.42;68.02;100558.74;1679592;85;21025;-73
2021/11/23 05:07:56;;;;;;;4.05;2.40;;;;;;;1.40;67.98;100562.72;1675202;83;21078;-68
2021/11/23 05:10:23;;;;;;;3.62;2.25;;;;;;;1.40;67.79;100558.81;1692589;83;22229;-70
2021/11/23 05:12:50;;;;;;;2.83;2.12;;;;;;;1.39;67.66;100554.97;1666247;83;21148;-70
2021/11/23 05:15:16;;;;;;;3.42;2.50;;;;;;;1.40;67.73;100559.27;1673976;83;21463;-69
2021/11/23 05:17:44;;;;;;;3.15;2.20;;;;;;;1.40;67.67;100557.96;1652586;86;21510;-68
2021/11/23 05:20:11;;;;;;;4.00;2.55;;;;;;;1.42;67.64;100562.20;1687044;83;21016;-67
2021/11/23 05:22:40;;;;;;;5.05;2.65;;;;;;;1.45;67.64;100563.85;1691467;83;21879;-70
2021/11/23 05:25:09;;;;;;;3.75;2.50;;;;;;;1.45;67.57;100562.55;1673160;83;21029;-67
2021/11/23 05:27:35;;;;;;;5.08;3.42;;;;;;;1.46;67.45;100570.75;1665560;83;21029;-68
2021/11/23 05:30:06;;;;;;;5.50;4.65;;;;;;;1.44;67.38;100580.34;1659225;84;21068;-70
2021/11/23 05:32:33;;;;;;;5.40;3.47;;;;;;;1.45;67.47;100583.38;1688060;83;20973;-69
2021/11/23 05:35:00;;;;;;;4.70;3.45;;;;;;;1.46;67.43;100579.86;1677176;85;22616;-69
2021/11/23 05:37:27;;;;;;;3.58;2.08;;;;;;;1.47;67.36;100582.86;1667485;84;21089;-71
2021/11/23 05:39:54;;;;;;;5.60;3.17;;;;;;;1.46;67.11;100580.31;1679016;85;21101;-68
2021/11/23 05:42:20;;;;;;;4.17;2.55;;;;;;;1.43;67.10;100585.16;1704535;84;20975;-69
2021/11/23 05:44:47;;;;;;;7.08;4.62;;;;;;;1.44;67.12;100597.27;1688200;84;21016;-70
2021/11/23 05:47:14;;;;;;;5.55;3.77;;;;;;;1.40;67.05;100600.91;1678127;84;21883;-68
2021/11/23 05:49:42;;;;;;;8.93;6.47;;;;;;;1.37;67.10;100596.67;1678454;85;20982;-68
2021/11/23 05:52:08;;;;;;;5.35;3.47;;;;;;;1.38;67.03;100604.02;1670271;85;21093;-68
2021/11/23 05:54:36;;;;;;;35.78;22.15;;;;;;;1.37;66.95;100605.78;1652571;86;21907;-68
2021/11/23 05:57:04;;;;;;;15.45;11.05;;;;;;;1.36;66.77;100611.89;1653244;85;21026;-68
2021/11/23 05:59:31;;;;;;;8.38;4.78;;;;;;;1.33;66.68;100616.34;1732902;82;21921;-68
2021/11/23 06:02:00;;;;;;;4.55;3.08;;;;;;;1.32;66.72;100612.05;1696022;84;21033;-69
2021/11/23 06:04:26;;;;;;;3.87;2.55;;;;;;;1.33;66.74;100608.09;1692140;84;21478;-68
2021/11/23 06:06:53;;;;;;;5.05;2.67;;;;;;;1.33;66.63;100608.09;1715581;83;21012;-68
2021/11/23 06:09:20;;;;;;;5.42;2.92;;;;;;;1.32;66.46;100614.66;1744744;81;21359;-69
2021/11/23 06:11:46;;;;;;;4.65;2.80;;;;;;;1.32;66.41;100618.10;1699835;84;21856;-68
2021/11/23 06:14:13;;;;;;;3.50;2.50;;;;;;;1.30;66.43;100617.31;1700491;84;20957;-69
2021/11/23 06:16:44;;;;;;;6.83;5.17;;;;;;;1.29;66.21;100619.53;1699384;84;21433;-68
2021/11/23 06:19:09;;;;;;;4.45;3.08;;;;;;;1.26;66.08;100626.16;1735972;82;20953;-69
2021/11/23 06:21:35;;;;;;;13.45;8.73;;;;;;;1.24;65.94;100635.75;1678925;84;21064;-69
2021/11/23 06:24:02;;;;;;;16.77;12.60;;;;;;;1.20;65.88;100637.23;1672599;84;21844;-68
2021/11/23 06:26:30;;;;;;;11.35;8.68;;;;;;;1.19;65.91;100633.78;1736051;82;20953;-68
2021/11/23 06:28:58;;;;;;;5.15;2.92;;;;;;;1.23;65.95;100634.51;1736242;82;21419;-69
2021/11/23 06:31:25;;;;;;;5.42;3.60;;;;;;;1.23;65.70;100635.81;1699863;83;21048;-69
2021/11/23 06:33:57;;;;;;;3.10;2.10;;;;;;;1.23;65.51;100643.16;1700550;84;20977;-68
2021/11/23 06:36:22;;;;;;;4.17;2.65;;;;;;;1.24;65.36;100644.01;1688622;83;21873;-69
2021/11/23 06:38:51;;;;;;;3.85;2.37;;;;;;;1.27;65.13;100645.22;1681766;85;21374;-69
2021/11/23 06:41:18;;;;;;;3.40;2.10;;;;;;;1.28;65.01;100649.52;1688639;81;21029;-69
2021/11/23 06:43:45;;;;;;;3.05;2.00;;;;;;;1.30;65.10;100652.91;1706370;82;21655;-69
2021/11/23 06:46:12;;;;;;;2.92;2.30;;;;;;;1.29;64.98;100646.85;1656477;85;21413;-70
2021/11/23 06:48:39;;;;;;;6.40;2.30;;;;;;;1.32;64.89;100647.19;1677739;84;21852;-68
2021/11/23 06:51:06;;;;;;;3.90;2.12;;;;;;;1.32;64.82;100648.48;1670712;85;21480;-69
2021/11/23 06:53:33;;;;;;;2.87;2.00;;;;;;;1.36;64.76;100644.88;1663450;84;21041;-68
2021/11/23 06:55:59;;;;;;;3.58;1.87;;;;;;;1.38;64.72;100658.67;1677090;84;20989;-68
2021/11/23 06:58:26;;;;;;;3.62;2.02;;;;;;;1.45;64.80;100656.25;1664017;85;21037;-66
2021/11/23 07:00:53;;;;;;;3.02;1.98;;;;;;;1.50;64.60;100665.17;1651621;85;21858;-67
2021/11/23 07:03:20;;;;;;;2.60;1.90;;;;;;;1.52;64.61;100660.30;1673746;85;21468;-68
2021/11/23 07:05:47;;;;;;;2.40;1.70;;;;;;;1.56;64.45;100659.30;1673722;85;21052;-69
2021/11/23 07:08:14;;;;;;;3.80;1.90;;;;;;;1.57;64.11;100661.45;1673871;84;21032;-69
2021/11/23 07:10:42;;;;;;;2.60;1.90;;;;;;;1.60;64.14;100662.62;1647531;85;20997;-68
2021/11/23 07:13:09;;;;;;;3.08;1.82;;;;;;;1.63;63.98;100656.83;1653990;85;21885;-68
2021/11/23 07:15:36;;;;;;;9.58;6.10;;;;;;;1.62;63.50;100659.05;1673601;85;21017;-69
2021/11/23 07:18:02;;;;;;;4.47;2.70;;;;;;;1.60;63.39;100663.47;1668338;85;21013;-69
2021/11/23 07:20:29;;;;;;;2.20;1.82;;;;;;;1.57;63.10;100665.34;1670923;85;21027;-69
2021/11/23 07:22:56;;;;;;;5.75;4.28;;;;;;;1.54;63.02;100663.69;1673704;85;21033;-69
2021/11/23 07:25:23;;;;;;;6.47;5.20;;;;;;;1.52;62.60;100669.41;1651658;85;21857;-69
2021/11/23 07:27:50;;;;;;;4.65;2.90;;;;;;;1.51;62.81;100667.72;1646850;85;20961;-69
2021/11/23 07:30:17;;;;;;;4.45;2.02;;;;;;;1.52;62.58;100671.17;1673803;85;21025;-69
2021/11/23 07:32:44;;;;;;;3.37;2.00;;;;;;;1.50;62.68;100669.08;1673731;85;21021;-69
2021/11/23 07:35:11;;;;;;;3.25;2.40;;;;;;;1.52;62.59;100669.41;1641159;85;21012;-69
2021/11/23 07:37:41;;;;;;;6.05;3.87;;;;;;;1.53;62.03;100667.66;1660167;85;21858;-69
2021/11/23 07:40:10;;;;;;;5.65;3.35;;;;;;;1.53;62.28;100664.59;1657396;85;20997;-69
2021/11/23 07:42:38;;;;;;;9.05;5.78;;;;;;;1.61;62.43;100670.83;1673911;85;21025;-70
2021/11/23 07:45:06;;;;;;;3.83;2.98;;;;;;;1.67;62.43;100671.91;1673680;85;21270;-70
2021/11/23 07:47:35;;;;;;;3.70;2.25;;;;;;;1.72;62.00;100670.80;1673941;85;21096;-70
2021/11/23 07:50:03;;;;;;;3.75;2.75;;;;;;;1.71;61.24;100666.50;1647161;85;22484;-69
2021/11/23 07:52:30;;;;;;;3.83;2.58;;;;;;;1.68;60.97;100674.90;1677140;84;21025;-69
2021/11/23 07:54:58;;;;;;;3.98;2.77;;;;;;;1.67;60.99;100673.20;1674503;83;21008;-70
2021/11/23 07:57:24;;;;;;;21.57;17.15;;;;;;;1.64;60.65;100674.18;1710993;82;21072;-69
2021/11/23 07:59:51;;;;;;;25.23;21.75;;;;;;;1.62;60.44;100659.50;1727054;83;21005;-69
2021/11/23 08:02:18;;;;;;;7.95;5.30;;;;;;;1.59;60.19;100658.32;1711474;80;22197;-68
2021/11/23 08:04:45;;;;;;;8.28;6.70;;;;;;;1.59;60.30;100665.68;1719836;82;21036;-69
2021/11/23 08:07:12;;;;;;;5.55;3.40;;;;;;;1.61;60.35;100672.13;1731432;82;20969;-68
2021/11/23 08:09:38;;;;;;;3.27;2.20;;;;;;;1.62;60.36;100670.76;1730388;82;21055;-69
2021/11/23 08:12:06;;;;;;;4.20;1.70;;;;;;;1.62;60.23;100668.16;1738692;82;21028;-70
2021/11/23 08:14:33;;;;;;;3.30;2.00;;;;;;;1.67;60.44;100675.36;1740265;82;21820;-69
2021/11/23 08:17:01;;;;;;;3.35;1.90;;;;;;;1.73;60.49;100681.61;1743755;82;21404;-69
2021/11/23 08:19:30;;;;;;;3.47;2.20;;;;;;;1.76;60.17;100671.56;1743742;81;20961;-70
2021/11/23 08:21:56;;;;;;;2.33;1.67;;;;;;;1.77;60.14;100668.05;1716376;82;21032;-70
2021/11/23 08:24:24;;;;;;;3.65;1.60;;;;;;;1.73;59.15;100662.08;1719786;82;47572;-69
2021/11/23 08:26:53;;;;;;;3.10;1.60;;;;;;;1.68;59.34;100660.13;1741269;82;21811;-69
2021/11/23 08:29:20;;;;;;;3.60;2.00;;;;;;;1.66;58.86;100663.25;1737886;82;20953;-70
2021/11/23 08:31:46;;;;;;;2.75;1.82;;;;;;;1.61;59.08;100662.56;1740153;82;21008;-70
2021/11/23 08:34:14;;;;;;;3.05;1.90;;;;;;;1.66;59.18;100659.80;1740164;81;21060;-70
2021/11/23 08:36:40;;;;;;;5.75;1.90;;;;;;;1.73;58.88;100659.48;1721790;82;21032;-71
2021/11/23 08:39:07;;;;;;;3.27;2.12;;;;;;;1.76;58.38;100660.30;1733282;82;22143;-69
2021/11/23 08:41:34;;;;;;;3.70;2.30;;;;;;;1.82;58.21;100660.03;1735376;82;21436;-70
2021/11/23 08:44:01;;;;;;;3.20;2.00;;;;;;;1.91;58.56;100660.53;1735866;82;21031;-71
2021/11/23 08:46:28;;;;;;;3.35;2.12;;;;;;;2.04;57.66;100662.22;1735491;82;21035;-70
2021/11/23 08:48:54;;;;;;;29.67;24.20;;;;;;;2.12;56.93;100661.89;1711002;82;21056;-71
2021/11/23 08:51:29;;;;;;;9.65;7.12;;;;;;;2.19;56.50;100663.34;1739586;82;22858;-70
2021/11/23 08:53:51;;;;;;;5.50;2.98;;;;;;;2.28;56.26;100669.03;1738705;82;20985;-70
2021/11/23 08:56:17;;;;;;;5.92;3.08;;;;;;;2.36;55.81;100663.97;1740840;82;20989;-70
2021/11/23 08:58:47;;;;;;;3.87;2.20;;;;;;;2.44;55.25;100667.97;1743385;80;21580;-69
2021/11/23 09:01:13;;;;;;;3.35;1.75;;;;;;;2.49;54.96;100662.09;1707472;82;20961;-70
2021/11/23 09:03:41;;;;;;;39.27;33.20;;;;;;;2.54;54.58;100666.67;1667539;85;21802;-70
2021/11/23 09:06:08;;;;;;;17.32;14.70;;;;;;;2.61;54.67;100665.13;1651238;85;21020;-69
2021/11/23 09:08:40;;;;;;;6.65;4.20;;;;;;;2.69;54.81;100671.69;1660991;86;21104;-69
2021/11/23 09:11:04;;;;;;;3.98;2.55;;;;;;;2.74;54.46;100661.92;1660975;86;21414;-71
2021/11/23 09:13:32;;;;;;;4.55;2.00;;;;;;;2.82;54.66;100659.84;1647745;86;21056;-71
2021/11/23 09:15:59;;;;;;;2.40;1.62;;;;;;;2.86;54.21;100659.23;1732710;80;22133;-70
2021/11/23 09:18:26;;;;;;;2.60;1.70;;;;;;;2.92;53.51;100658.98;1773158;80;21008;-70
2021/11/23 09:20:52;;;;;;;2.40;1.57;;;;;;;2.94;53.79;100645.87;1750959;80;20976;-70
2021/11/23 09:23:19;;;;;;;2.55;1.50;;;;;;;3.04;54.08;100649.77;1737711;82;21073;-67
2021/11/23 09:25:46;;;;;;;2.62;1.95;;;;;;;3.23;54.47;100647.20;1736938;81;21029;-70
2021/11/23 09:28:12;;;;;;;3.70;1.80;;;;;;;3.42;53.97;100650.67;1720437;80;21861;-68
2021/11/23 09:30:40;;;;;;;2.70;1.60;;;;;;;3.55;53.43;100648.34;1729468;82;21060;-67
2021/11/23 09:33:07;;;;;;;2.47;1.60;;;;;;;3.63;53.20;100656.67;1723651;82;21001;-70
2021/11/23 09:35:34;;;;;;;4.95;3.80;;;;;;;3.72;52.58;100653.64;1729380;82;21555;-69
2021/11/23 09:38:01;;;;;;;4.60;2.45;;;;;;;3.81;52.81;100657.13;1738250;82;21008;-69
2021/11/23 09:40:29;;;;;;;3.40;2.55;;;;;;;3.89;52.30;100650.23;1733151;82;21855;-68
2021/11/23 09:42:56;;;;;;;3.70;1.50;;;;;;;4.09;52.30;100651.44;1734825;82;21005;-69
2021/11/23 09:45:23;;;;;;;7.30;5.58;;;;;;;4.25;50.57;100649.78;1736932;81;20968;-66
2021/11/23 09:47:50;;;;;;;33.92;23.45;;;;;;;4.29;51.26;100640.86;1667760;84;21731;-66
2021/11/23 09:50:17;;;;;;;25.77;18.98;;;;;;;4.41;50.45;100647.24;1659104;84;21560;-66
2021/11/23 09:52:44;;;;;;;28.47;19.02;;;;;;;4.52;50.59;100644.94;1736872;82;21904;-66
2021/11/23 09:55:12;;;;;;;31.12;26.68;;;;;;;4.65;49.96;100644.34;1728330;80;20929;-69
2021/11/23 09:57:39;;;;;;;12.10;10.38;;;;;;;4.65;49.32;100627.34;1719143;82;21546;-67
2021/11/23 10:00:27;;;;;;;11.28;8.68;;;;;;;4.69;49.69;100640.63;1719087;82;20993;-68
2021/11/23 10:02:59;;;;;;;8.15;5.75;;;;;;;4.72;48.86;100634.77;1642108;87;21382;-68
2021/11/23 10:05:32;;;;;;;18.92;15.32;;;;;;;4.79;49.21;100637.93;1689115;84;21764;-68
2021/11/23 10:08:07;;;;;;;;;;;;;;;4.84;48.63;100631.55;1708008;83;20997;-67
2021/11/23 10:10:51;;;;;;;6.67;5.22;;;;;;;4.88;48.41;100635.69;1705159;84;20146;-67
2021/11/23 10:13:20;;;;;;;6.08;4.87;;;;;;;5.01;48.70;100625.41;1728469;82;22186;-67
2021/11/23 10:15:49;;;;;;;15.48;13.85;;;;;;;5.06;47.75;100636.51;1738212;82;21514;-67
2021/11/23 10:18:23;;;;;;;15.93;12.98;;;;;;;5.10;47.46;100628.86;1740401;82;21829;-67
2021/11/23 10:20:57;;;;;;;6.60;5.53;;;;;;;5.08;47.84;100625.48;1740801;82;25408;-68
2021/11/23 10:23:31;;;;;;;20.35;18.23;;;;;;;5.20;47.91;100629.22;1737517;82;20964;-68
2021/11/23 10:26:08;;;;;;;13.08;10.48;;;;;;;5.30;47.85;100627.80;1710449;82;21021;-67
2021/11/23 10:28:34;;;;;;;6.97;5.00;;;;;;;5.44;47.45;100634.47;1741970;82;21372;-67
2021/11/23 10:31:02;;;;;;;8.33;6.65;;;;;;;5.40;47.02;100625.09;1741094;82;21752;-68
2021/11/23 10:33:32;;;;;;;20.82;17.73;;;;;;;5.48;47.52;100622.50;1740564;81;20980;-68
2021/11/23 10:35:59;;;;;;;21.23;19.12;;;;;;;5.48;46.34;100628.59;1740862;82;21475;-68
2021/11/23 10:38:27;;;;;;;16.65;14.20;;;;;;;5.37;45.84;100628.33;1740803;82;21000;-68
2021/11/23 10:40:54;;;;;;;24.10;18.25;;;;;;;5.28;46.57;100625.73;1740758;81;20961;-69
2021/11/23 10:43:22;;;;;;;12.60;10.53;;;;;;;5.34;47.07;100626.73;1737344;82;21786;-67
2021/11/23 10:45:54;;;;;;;7.40;6.50;;;;;;;5.53;47.42;100620.50;1740541;80;20938;-68
2021/11/23 10:48:24;;;;;;;10.08;7.97;;;;;;;5.68;46.56;100621.80;1740428;81;21043;-67
2021/11/23 10:51:07;;;;;;;15.88;10.98;;;;;;;5.68;46.23;100617.86;1740254;82;21000;-67
2021/11/23 10:53:36;;;;;;;4.22;3.40;;;;;;;5.69;45.53;100616.08;1743559;80;20941;-69
2021/11/23 10:56:14;;;;;;;5.80;3.98;;;;;;;5.65;45.16;100612.80;1752957;81;21809;-67
2021/11/23 10:58:44;;;;;;;4.50;2.80;;;;;;;5.69;45.22;100612.16;1739013;82;20961;-68
2021/11/23 11:01:11;;;;;;;11.60;9.30;;;;;;;5.82;45.63;100612.34;1729979;80;20997;-68
2021/11/23 11:03:40;;;;;;;14.35;11.40;;;;;;;5.87;43.83;100615.06;1741511;80;20985;-69
2021/11/23 11:06:07;;;;;;;4.12;2.90;;;;;;;5.84;45.10;100618.33;1740213;80;21040;-67
2021/11/23 11:08:45;;;;;;;2.58;1.92;;;;;;;5.82;44.76;100617.58;1763995;81;22424;-67
2021/11/23 11:11:17;;;;;;;2.37;1.42;;;;;;;5.75;44.44;100618.38;1734238;80;20998;-66
2021/11/23 11:13:48;;;;;;;1.40;1.10;;;;;;;5.61;43.75;100609.98;1742058;80;20972;-68
2021/11/23 11:16:16;;;;;;;8.15;5.75;;;;;;;5.31;44.19;100604.64;1748959;81;20960;-67
2021/11/23 11:19:08;;;;;;;5.40;3.90;;;;;;;5.22;45.85;100605.59;1728641;82;20993;-67
2021/11/23 11:21:49;;;;;;;5.53;3.52;;;;;;;5.62;47.13;100605.12;1728760;82;22497;-68
2021/11/23 11:27:14;;;;;;;4.08;3.20;;;;;;;6.11;45.00;100605.48;1684267;82;21413;-69
2021/11/23 11:29:31;;;;;;;2.70;1.70;;;;;;;6.40;43.89;100606.42;1727819;82;21124;-68
2021/11/23 11:31:59;;;;;;;3.12;1.80;;;;;;;6.43;44.09;100597.89;1739933;80;21047;-69
2021/11/23 11:34:38;;;;;;;7.45;4.97;;;;;;;6.56;43.79;100591.45;1738626;82;22181;-68
2021/11/23 11:37:19;;;;;;;11.28;7.72;;;;;;;6.72;43.88;100596.64;1722951;80;20955;-68